Terminal Aerodrome Forecast
Issued by NWS

Home | Current Version | Previous Version | Text Only | Print | Product List | Glossary On
Versions: 1 2 3 4 5 6 7 8 9 10 11 12 13 14
000
FTUS45 KRIW 231720
TAFWRL
TAF
KWRL 231720Z 2318/2418 VRB04KT P6SM VCFG BKN110
     FM232300 34010KT P6SM OVC040
     FM240200 33011KT P6SM VCSH FEW009 SCT015 OVC025
     FM240500 33011KT 2SM -SN SCT009 BKN015 OVC020
     FM241400 33007KT 5SM -SN SCT011 BKN018 OVC025=

USA.gov is the U.S. government's official web portal to all federal, state and local government web resources and services.